If you wish to contribute or participate in the discussions about articles you are invited to join SKYbrary as a registered user

 Actions

Hamadan Airport

From SKYbrary Wiki

OIHH
Airport
ICAO: OIHH – IATA: HDM
Summary
Name Hamadan Airport
Region Middle East
Territory Iran IR.gif
Location Hamedan, Hamadan Province
Serving Hamedan
Elevation 1,754.124 m
5,755 ft1,754.124 m
Coordinates 34° 52' 2.28" N, 48° 32' 16.28" E
Runways
Designator Length Width Surface ROPS
10/28 3234 m10,610.236 ft
45 m147.638 ft
ASP /


METAR
Observation OIHH 181800Z 13004KT 8000 -SHRA FEW035CB BKN040 08/06 Q1015 A2999
Station Hamadan
Date/Time 18 April 2019 18:00:00
Wind direction 130°
Wind speed 04 kts
Lowest cloud amount few clouds
Temperature 8°C
Dew point 6°C
Humidity 87%
QNH 1015 hPa
Weather condition n/a

Airport 8km4.32 nm
8,000 m
26,246.719 ft
north of Hamedan, a city in Iran.

Climatology

Continental climate (Köppen climate classification Dsa). The temperature may drop below −30 °C (−22 °F) on the coldest days. Heavy snowfall is common during winter and this can persist for periods of up to two months. During the short summer, the weather is mild, pleasant, and mostly sunny.

Maps

Terrain

Loading map...

Airport Layout

Loading map...


Accidents & Serious Incidents at or in vicinity of OIHH

None on SKYbrary